Terminal Aerodrome Forecast
Issued by NWS Twin Cities, MN

Home | Current Version | Previous Version | Graphics & Text | Print | Product List | Glossary On
Versions: 1 2 3 4 5 6 7 8 9 10 11 12 13 14 15 16 17
710
FTUS43 KMPX 231555 AAA
TAFEAU
TAF AMD
KEAU 231555Z 2316/2412 09008KT P6SM SCT025 BKN040
     FM240400 10007KT P6SM SCT006 OVC015=

USA.gov is the U.S. government's official web portal to all federal, state and local government web resources and services.